createdAt,value
2022-09-13T00:00:04.529Z,940.88
2022-09-13T00:05:03.003Z,940.84
2022-09-13T00:10:04.257Z,940.84
2022-09-13T00:15:03.017Z,940.84
2022-09-13T00:20:04.162Z,940.82
2022-09-13T00:25:03.044Z,940.57
2022-09-13T00:30:04.404Z,940.51
2022-09-13T00:35:03.001Z,940.64
2022-09-13T00:40:04.157Z,940.88
2022-09-13T00:45:03.048Z,940.94
2022-09-13T00:50:04.221Z,941.04
2022-09-13T00:55:03.025Z,941.08
2022-09-13T01:00:06.224Z,941.15
2022-09-13T01:05:03.004Z,941.21
2022-09-13T01:10:04.243Z,941.21
2022-09-13T01:15:03.174Z,941.02
2022-09-13T01:20:04.218Z,940.78
2022-09-13T01:25:03.177Z,940.78
2022-09-13T01:30:04.599Z,941.02
2022-09-13T01:35:02.932Z,941.09
2022-09-13T01:40:04.201Z,941.23
2022-09-13T01:45:03.041Z,941.29
2022-09-13T01:50:04.293Z,941.41
2022-09-13T01:55:02.976Z,941.55
2022-09-13T02:00:05.449Z,941.64
2022-09-13T02:05:03.015Z,941.64
2022-09-13T02:10:04.123Z,941.59
2022-09-13T02:15:03.018Z,941.49
2022-09-13T02:20:04.043Z,941.51
2022-09-13T02:25:03.037Z,941.47
2022-09-13T02:30:04.327Z,941.35
2022-09-13T02:35:03.073Z,941.33
2022-09-13T02:40:04.267Z,941.37
2022-09-13T02:45:02.983Z,941.29
2022-09-13T02:50:04.085Z,941.08
2022-09-13T02:55:02.923Z,940.90
2022-09-13T03:00:06.054Z,940.88
2022-09-13T03:05:03.039Z,941.02
2022-09-13T03:10:04.189Z,941.08
2022-09-13T03:15:03.000Z,940.94
2022-09-13T03:20:04.121Z,941.08
2022-09-13T03:25:03.015Z,941.13
2022-09-13T03:30:05.844Z,941.13
2022-09-13T03:35:03.028Z,941.06
2022-09-13T03:40:05.085Z,940.94
2022-09-13T03:45:02.955Z,941.06
2022-09-13T03:50:04.064Z,940.94
2022-09-13T03:55:02.932Z,940.90
2022-09-13T04:00:05.024Z,940.82
2022-09-13T04:05:03.023Z,940.88
2022-09-13T04:10:04.174Z,940.80
2022-09-13T04:15:02.979Z,940.57
2022-09-13T04:20:04.004Z,940.63
2022-09-13T04:25:03.122Z,940.59
2022-09-13T04:30:04.387Z,940.51
2022-09-13T04:35:02.943Z,940.43
2022-09-13T04:40:04.144Z,940.45
2022-09-13T04:45:02.927Z,940.45
2022-09-13T04:50:04.069Z,940.39
2022-09-13T04:55:03.009Z,940.47
2022-09-13T05:00:05.960Z,940.37
2022-09-13T05:05:03.009Z,940.08
2022-09-13T05:10:04.084Z,940.11
2022-09-13T05:15:03.073Z,940.00
2022-09-13T05:20:03.970Z,939.90
2022-09-13T05:25:03.127Z,939.92
2022-09-13T05:30:04.316Z,940.04
2022-09-13T05:35:02.937Z,940.00
2022-09-13T05:40:12.451Z,940.00
2022-09-13T05:45:02.969Z,940.06
2022-09-13T05:50:19.082Z,940.06
2022-09-13T05:55:02.959Z,940.09
2022-09-13T06:00:04.762Z,940.04
2022-09-13T06:05:02.943Z,939.98
2022-09-13T06:10:04.037Z,939.86
2022-09-13T06:15:02.975Z,939.74
2022-09-13T06:20:09.005Z,939.80
2022-09-13T06:25:02.926Z,939.92
2022-09-13T06:30:05.429Z,939.94
2022-09-13T06:35:02.992Z,939.84
2022-09-13T06:40:04.168Z,939.76
2022-09-13T06:45:02.984Z,939.88
2022-09-13T06:50:03.966Z,939.88
2022-09-13T06:55:02.861Z,939.82
2022-09-13T07:00:06.182Z,939.76
2022-09-13T07:05:02.969Z,939.78
2022-09-13T07:10:04.084Z,939.72
2022-09-13T07:15:02.927Z,939.72
2022-09-13T07:20:04.009Z,939.68
2022-09-13T07:25:03.003Z,939.62
2022-09-13T07:30:06.162Z,939.66
2022-09-13T07:35:03.031Z,939.74
2022-09-13T07:40:04.122Z,939.80
2022-09-13T07:45:02.948Z,939.84
2022-09-13T07:50:04.088Z,939.86
2022-09-13T07:55:03.019Z,939.84
2022-09-13T08:00:04.560Z,939.82
2022-09-13T08:05:03.082Z,939.84
2022-09-13T08:10:04.007Z,939.96
2022-09-13T08:15:02.909Z,940.00
2022-09-13T08:20:10.497Z,939.98
2022-09-13T08:25:02.955Z,939.98
2022-09-13T08:30:04.477Z,940.02
2022-09-13T08:35:03.081Z,940.04
2022-09-13T08:40:04.224Z,940.09
2022-09-13T08:45:02.974Z,940.09
2022-09-13T08:50:05.086Z,940.19
2022-09-13T08:55:02.979Z,940.31
2022-09-13T09:00:04.311Z,940.37
2022-09-13T09:05:03.023Z,940.33
2022-09-13T09:10:04.246Z,940.39
2022-09-13T09:15:03.003Z,940.43
2022-09-13T09:20:04.137Z,940.47
2022-09-13T09:25:03.105Z,940.51
2022-09-13T09:30:06.196Z,940.55
2022-09-13T09:35:02.973Z,940.68
2022-09-13T09:40:04.172Z,940.82
2022-09-13T09:45:02.920Z,940.86
2022-09-13T09:50:04.152Z,940.84
2022-09-13T09:55:02.957Z,940.90
2022-09-13T10:00:05.071Z,940.94
2022-09-13T10:05:02.950Z,941.09
2022-09-13T10:10:04.085Z,941.09
2022-09-13T10:15:03.131Z,941.09
2022-09-13T10:20:04.186Z,941.13
2022-09-13T10:25:02.948Z,941.17
2022-09-13T10:30:05.973Z,941.19
2022-09-13T10:35:02.961Z,941.23
2022-09-13T10:40:04.245Z,941.31
2022-09-13T10:45:02.994Z,941.33
2022-09-13T10:50:04.178Z,941.27
2022-09-13T10:55:02.911Z,941.41
2022-09-13T11:00:11.189Z,941.51
2022-09-13T11:05:02.912Z,941.57
2022-09-13T11:10:04.118Z,941.68
2022-09-13T11:15:03.000Z,941.72
2022-09-13T11:20:09.173Z,941.74
2022-09-13T11:25:02.961Z,941.72
2022-09-13T11:30:06.273Z,941.78
2022-09-13T11:35:02.954Z,941.86
2022-09-13T11:40:04.219Z,941.80
2022-09-13T11:45:02.926Z,941.86
2022-09-13T11:50:04.247Z,941.72
2022-09-13T11:55:03.002Z,941.74
2022-09-13T12:00:06.217Z,941.80
2022-09-13T12:05:21.396Z,941.78
2022-09-13T12:10:04.178Z,941.80
2022-09-13T12:15:02.997Z,941.66
2022-09-13T12:20:04.316Z,941.84
2022-09-13T12:25:02.937Z,941.98
2022-09-13T12:30:06.031Z,942.08
2022-09-13T12:35:03.014Z,942.11
2022-09-13T12:40:04.226Z,942.17
2022-09-13T12:45:03.019Z,942.11
2022-09-13T12:50:36.743Z,942.17
2022-09-13T12:55:02.922Z,942.21
2022-09-13T13:00:06.095Z,942.27
2022-09-13T13:05:02.982Z,942.37
2022-09-13T13:10:04.249Z,942.35
2022-09-13T13:15:02.972Z,942.39
2022-09-13T13:20:09.195Z,942.33
2022-09-13T13:25:03.227Z,942.37
2022-09-13T13:30:04.574Z,942.49
2022-09-13T13:35:02.969Z,942.45
2022-09-13T13:40:04.214Z,942.41
2022-09-13T13:45:02.965Z,942.25
2022-09-13T13:50:04.134Z,942.19
2022-09-13T13:55:02.964Z,942.23
2022-09-13T14:00:06.182Z,942.27
2022-09-13T14:05:03.054Z,942.19
2022-09-13T14:10:04.258Z,942.13
2022-09-13T14:15:03.037Z,942.02
2022-09-13T14:20:04.197Z,941.94
2022-09-13T14:25:02.987Z,941.90
2022-09-13T14:30:05.994Z,941.88
2022-09-13T14:35:03.006Z,941.84
2022-09-13T14:40:04.098Z,941.86
2022-09-13T14:45:02.932Z,941.88
2022-09-13T14:50:04.117Z,942.02
2022-09-13T14:55:02.965Z,941.80
2022-09-13T15:00:06.133Z,941.68
2022-09-13T15:05:03.027Z,941.68
2022-09-13T15:10:04.088Z,941.63
2022-09-13T15:15:02.988Z,941.61
2022-09-13T15:20:04.195Z,941.39
2022-09-13T15:25:02.983Z,941.33
2022-09-13T15:30:05.332Z,941.27
2022-09-13T15:35:02.920Z,941.27
2022-09-13T15:40:04.133Z,941.21
2022-09-13T15:45:03.000Z,941.09
2022-09-13T15:50:04.085Z,941.09
2022-09-13T15:55:03.083Z,941.06
2022-09-13T16:00:06.847Z,940.92
2022-09-13T16:05:03.010Z,940.63
2022-09-13T16:10:04.082Z,940.47
2022-09-13T16:15:03.259Z,940.49
2022-09-13T16:20:09.136Z,940.49
2022-09-13T16:25:03.009Z,940.59
2022-09-13T16:30:04.292Z,940.64
2022-09-13T16:35:03.059Z,940.64
2022-09-13T16:40:04.188Z,940.70
2022-09-13T16:45:03.231Z,940.61
2022-09-13T16:50:04.113Z,940.45
2022-09-13T16:55:02.995Z,940.43
2022-09-13T17:00:06.243Z,940.53
2022-09-13T17:05:02.927Z,940.51
2022-09-13T17:10:04.147Z,940.49
2022-09-13T17:15:03.027Z,940.57
2022-09-13T17:20:04.129Z,940.55
2022-09-13T17:25:02.920Z,940.37
2022-09-13T17:30:06.213Z,940.15
2022-09-13T17:35:02.950Z,940.06
2022-09-13T17:40:09.379Z,940.04
2022-09-13T17:45:02.926Z,939.84
2022-09-13T17:50:04.279Z,939.54
2022-09-13T17:55:02.908Z,939.51
2022-09-13T18:00:04.209Z,939.68
2022-09-13T18:05:05.848Z,939.53
2022-09-13T18:10:04.228Z,939.15
2022-09-13T18:15:02.992Z,939.02
2022-09-13T18:20:04.104Z,939.21
2022-09-13T18:25:03.010Z,939.70
2022-09-13T18:30:04.441Z,939.64
2022-09-13T18:35:02.963Z,939.13
2022-09-13T18:40:04.172Z,939.41
2022-09-13T18:45:03.002Z,939.23
2022-09-13T18:50:04.074Z,938.92
2022-09-13T18:55:02.942Z,939.00
2022-09-13T19:00:04.230Z,939.35
2022-09-13T19:05:06.486Z,939.23
2022-09-13T19:10:04.159Z,939.31
2022-09-13T19:15:03.200Z,939.33
2022-09-13T19:20:04.186Z,939.07
2022-09-13T19:25:02.953Z,939.02
2022-09-13T19:30:05.898Z,939.06
2022-09-13T19:35:02.990Z,939.11
2022-09-13T19:40:04.346Z,939.19
2022-09-13T19:45:02.982Z,939.11
2022-09-13T19:50:04.106Z,939.51
2022-09-13T19:55:03.319Z,939.60
2022-09-13T20:00:06.298Z,939.60
2022-09-13T20:05:03.063Z,939.64
2022-09-13T20:10:04.354Z,939.80
2022-09-13T20:15:03.005Z,939.90
2022-09-13T20:20:09.013Z,939.94
2022-09-13T20:25:02.950Z,939.92
2022-09-13T20:30:06.247Z,939.94
2022-09-13T20:35:03.017Z,940.00
2022-09-13T20:40:04.270Z,940.09
2022-09-13T20:45:02.974Z,939.72
2022-09-13T20:50:04.180Z,939.21
2022-09-13T20:55:03.059Z,939.86
2022-09-13T21:00:04.941Z,940.25
2022-09-13T21:05:02.952Z,940.13
2022-09-13T21:10:04.201Z,940.27
2022-09-13T21:15:03.001Z,940.45
2022-09-13T21:20:04.177Z,940.59
2022-09-13T21:25:03.010Z,940.61
2022-09-13T21:30:04.663Z,940.74
2022-09-13T21:35:03.061Z,940.82
2022-09-13T21:40:04.312Z,940.90
2022-09-13T21:45:02.977Z,940.76
2022-09-13T21:50:04.333Z,940.66
2022-09-13T21:55:03.004Z,940.53
2022-09-13T22:00:09.581Z,940.47
2022-09-13T22:05:04.135Z,940.59
2022-09-13T22:10:04.306Z,940.80
2022-09-13T22:15:03.074Z,941.06
2022-09-13T22:20:04.236Z,941.27
2022-09-13T22:25:03.236Z,941.45
2022-09-13T22:30:07.263Z,941.57
2022-09-13T22:35:03.098Z,941.68
2022-09-13T22:40:04.431Z,941.84
2022-09-13T22:45:03.032Z,941.90
2022-09-13T22:50:04.202Z,942.04
2022-09-13T22:55:03.137Z,942.15
2022-09-13T23:00:04.908Z,942.19
2022-09-13T23:05:02.984Z,942.04
2022-09-13T23:10:04.362Z,942.15
2022-09-13T23:15:03.066Z,942.27
2022-09-13T23:20:04.292Z,942.31
2022-09-13T23:25:03.192Z,942.21
2022-09-13T23:30:06.256Z,942.15
2022-09-13T23:35:03.009Z,942.17
2022-09-13T23:40:04.361Z,942.21
2022-09-13T23:45:04.066Z,942.25
2022-09-13T23:50:04.080Z,942.25
2022-09-13T23:55:02.992Z,942.41
